sensor_id;sensor_type;location;lat;lon;timestamp;pressure;altitude;pressure_sealevel;temperature;humidity
38616;BME280;24370;51.986;4.666;2023-04-08T00:00:05;102361.03;;;19.07;46.38
38616;BME280;24370;51.986;4.666;2023-04-08T00:02:33;102358.69;;;18.93;45.69
38616;BME280;24370;51.986;4.666;2023-04-08T00:04:58;102356.44;;;18.25;47.81
38616;BME280;24370;51.986;4.666;2023-04-08T00:07:24;102362.44;;;18.80;46.97
38616;BME280;24370;51.986;4.666;2023-04-08T00:09:49;102365.13;;;18.78;46.70
38616;BME280;24370;51.986;4.666;2023-04-08T00:12:15;102355.91;;;18.04;48.23
38616;BME280;24370;51.986;4.666;2023-04-08T00:14:40;102360.13;;;18.14;48.49
38616;BME280;24370;51.986;4.666;2023-04-08T00:17:06;102366.69;;;17.92;49.45
38616;BME280;24370;51.986;4.666;2023-04-08T00:19:32;102351.81;;;18.36;48.51
38616;BME280;24370;51.986;4.666;2023-04-08T00:21:58;102369.34;;;17.31;49.93
38616;BME280;24370;51.986;4.666;2023-04-08T00:24:23;102370.91;;;17.44;50.46
38616;BME280;24370;51.986;4.666;2023-04-08T00:26:49;102368.34;;;17.99;49.69
38616;BME280;24370;51.986;4.666;2023-04-08T00:29:14;102369.53;;;17.16;51.61
38616;BME280;24370;51.986;4.666;2023-04-08T00:31:40;102373.53;;;17.46;51.18
38616;BME280;24370;51.986;4.666;2023-04-08T00:34:05;102363.31;;;17.23;52.15
38616;BME280;24370;51.986;4.666;2023-04-08T00:36:31;102368.47;;;17.93;50.15
38616;BME280;24370;51.986;4.666;2023-04-08T00:38:56;102374.19;;;16.98;51.89
38616;BME280;24370;51.986;4.666;2023-04-08T00:41:22;102368.72;;;16.31;53.94
38616;BME280;24370;51.986;4.666;2023-04-08T00:43:47;102372.84;;;17.32;52.60
38616;BME280;24370;51.986;4.666;2023-04-08T00:46:12;102376.41;;;17.29;52.90
38616;BME280;24370;51.986;4.666;2023-04-08T00:48:38;102371.88;;;17.98;50.13
38616;BME280;24370;51.986;4.666;2023-04-08T00:51:06;102372.66;;;17.45;51.47
38616;BME280;24370;51.986;4.666;2023-04-08T00:53:32;102370.75;;;18.13;50.36
38616;BME280;24370;51.986;4.666;2023-04-08T00:55:57;102367.84;;;18.27;49.88
38616;BME280;24370;51.986;4.666;2023-04-08T00:58:25;102374.25;;;17.59;51.02
38616;BME280;24370;51.986;4.666;2023-04-08T01:01:02;102374.50;;;18.01;49.83
38616;BME280;24370;51.986;4.666;2023-04-08T01:04:01;102383.63;;;17.78;51.10
38616;BME280;24370;51.986;4.666;2023-04-08T01:08:59;102372.13;;;17.81;50.67
38616;BME280;24370;51.986;4.666;2023-04-08T01:11:31;102375.78;;;17.10;52.40
38616;BME280;24370;51.986;4.666;2023-04-08T01:14:01;102381.59;;;17.97;50.49
38616;BME280;24370;51.986;4.666;2023-04-08T01:16:30;102377.91;;;17.49;51.19
38616;BME280;24370;51.986;4.666;2023-04-08T01:18:56;102385.84;;;17.47;52.63
38616;BME280;24370;51.986;4.666;2023-04-08T01:21:22;102379.38;;;18.26;50.26
38616;BME280;24370;51.986;4.666;2023-04-08T01:24:03;102386.13;;;17.88;50.92
38616;BME280;24370;51.986;4.666;2023-04-08T01:26:31;102384.06;;;18.08;50.53
38616;BME280;24370;51.986;4.666;2023-04-08T01:28:59;102384.50;;;17.80;51.30
38616;BME280;24370;51.986;4.666;2023-04-08T01:31:26;102390.84;;;17.02;53.25
38616;BME280;24370;51.986;4.666;2023-04-08T01:33:52;102389.63;;;17.93;51.04
38616;BME280;24370;51.986;4.666;2023-04-08T01:36:20;102385.03;;;18.03;50.64
38616;BME280;24370;51.986;4.666;2023-04-08T01:38:47;102373.34;;;18.18;50.43
38616;BME280;24370;51.986;4.666;2023-04-08T01:41:14;102380.19;;;18.28;49.76
38616;BME280;24370;51.986;4.666;2023-04-08T01:43:42;102382.97;;;16.99;52.79
38616;BME280;24370;51.986;4.666;2023-04-08T01:46:09;102381.53;;;17.41;52.20
38616;BME280;24370;51.986;4.666;2023-04-08T01:48:36;102383.84;;;16.99;53.77
38616;BME280;24370;51.986;4.666;2023-04-08T01:51:05;102389.56;;;17.96;51.43
38616;BME280;24370;51.986;4.666;2023-04-08T01:53:32;102380.69;;;18.48;48.98
38616;BME280;24370;51.986;4.666;2023-04-08T01:56:03;102387.91;;;17.86;50.25
38616;BME280;24370;51.986;4.666;2023-04-08T01:58:34;102393.31;;;17.79;50.76
38616;BME280;24370;51.986;4.666;2023-04-08T02:01:02;102394.78;;;17.99;50.85
38616;BME280;24370;51.986;4.666;2023-04-08T02:03:30;102392.19;;;17.34;51.74
38616;BME280;24370;51.986;4.666;2023-04-08T02:05:56;102386.94;;;18.44;49.60
38616;BME280;24370;51.986;4.666;2023-04-08T02:08:21;102381.94;;;18.29;49.70
38616;BME280;24370;51.986;4.666;2023-04-08T02:10:46;102397.06;;;18.22;48.92
38616;BME280;24370;51.986;4.666;2023-04-08T02:13:12;102390.19;;;17.51;51.03
38616;BME280;24370;51.986;4.666;2023-04-08T02:15:41;102396.97;;;17.72;50.83
38616;BME280;24370;51.986;4.666;2023-04-08T02:18:21;102396.38;;;17.50;51.23
38616;BME280;24370;51.986;4.666;2023-04-08T02:20:56;102390.78;;;18.28;49.37
38616;BME280;24370;51.986;4.666;2023-04-08T02:23:24;102390.72;;;18.31;49.63
38616;BME280;24370;51.986;4.666;2023-04-08T02:25:55;102392.81;;;18.13;49.17
38616;BME280;24370;51.986;4.666;2023-04-08T02:28:21;102392.31;;;18.41;48.74
38616;BME280;24370;51.986;4.666;2023-04-08T02:30:49;102392.19;;;17.97;49.50
38616;BME280;24370;51.986;4.666;2023-04-08T02:33:17;102390.91;;;18.22;49.66
38616;BME280;24370;51.986;4.666;2023-04-08T02:35:44;102388.63;;;18.00;50.21
38616;BME280;24370;51.986;4.666;2023-04-08T02:38:10;102386.50;;;18.21;49.48
38616;BME280;24370;51.986;4.666;2023-04-08T02:40:36;102385.09;;;18.96;47.55
38616;BME280;24370;51.986;4.666;2023-04-08T02:43:02;102400.72;;;18.15;48.92
38616;BME280;24370;51.986;4.666;2023-04-08T02:45:37;102393.09;;;18.46;48.12
38616;BME280;24370;51.986;4.666;2023-04-08T02:48:03;102395.84;;;18.40;47.95
38616;BME280;24370;51.986;4.666;2023-04-08T02:50:30;102389.28;;;18.63;47.49
38616;BME280;24370;51.986;4.666;2023-04-08T02:52:55;102396.13;;;18.25;48.18
38616;BME280;24370;51.986;4.666;2023-04-08T02:55:21;102401.69;;;18.08;48.72
38616;BME280;24370;51.986;4.666;2023-04-08T02:57:46;102405.09;;;18.18;48.99
38616;BME280;24370;51.986;4.666;2023-04-08T03:00:12;102401.97;;;18.44;48.03
38616;BME280;24370;51.986;4.666;2023-04-08T03:02:38;102397.31;;;18.57;47.27
38616;BME280;24370;51.986;4.666;2023-04-08T03:05:07;102409.63;;;18.09;48.08
38616;BME280;24370;51.986;4.666;2023-04-08T03:07:33;102408.72;;;18.10;48.17
38616;BME280;24370;51.986;4.666;2023-04-08T03:09:59;102410.69;;;18.49;47.70
38616;BME280;24370;51.986;4.666;2023-04-08T03:12:25;102415.56;;;18.24;48.06
38616;BME280;24370;51.986;4.666;2023-04-08T03:14:53;102410.19;;;18.27;48.18
38616;BME280;24370;51.986;4.666;2023-04-08T03:17:19;102414.50;;;17.12;50.45
38616;BME280;24370;51.986;4.666;2023-04-08T03:19:45;102415.97;;;17.99;49.31
38616;BME280;24370;51.986;4.666;2023-04-08T03:22:12;102412.91;;;17.66;49.30
38616;BME280;24370;51.986;4.666;2023-04-08T03:24:37;102416.81;;;18.01;49.10
38616;BME280;24370;51.986;4.666;2023-04-08T03:27:03;102417.00;;;17.86;49.44
38616;BME280;24370;51.986;4.666;2023-04-08T03:29:32;102409.09;;;18.40;48.19
38616;BME280;24370;51.986;4.666;2023-04-08T03:31:58;102408.63;;;18.17;48.23
38616;BME280;24370;51.986;4.666;2023-04-08T03:34:23;102412.09;;;18.19;48.35
38616;BME280;24370;51.986;4.666;2023-04-08T03:36:48;102410.63;;;18.54;47.69
38616;BME280;24370;51.986;4.666;2023-04-08T03:39:14;102414.59;;;18.76;46.85
38616;BME280;24370;51.986;4.666;2023-04-08T03:41:40;102424.50;;;18.17;48.55
38616;BME280;24370;51.986;4.666;2023-04-08T03:44:05;102424.28;;;17.71;49.83
38616;BME280;24370;51.986;4.666;2023-04-08T03:46:30;102423.09;;;18.47;47.53
38616;BME280;24370;51.986;4.666;2023-04-08T03:48:56;102431.78;;;17.40;50.38
38616;BME280;24370;51.986;4.666;2023-04-08T03:51:21;102435.41;;;17.95;48.17
38616;BME280;24370;51.986;4.666;2023-04-08T03:53:47;102433.66;;;17.97;48.15
38616;BME280;24370;51.986;4.666;2023-04-08T03:56:13;102443.13;;;18.09;48.28
38616;BME280;24370;51.986;4.666;2023-04-08T03:58:38;102439.88;;;17.26;50.99
38616;BME280;24370;51.986;4.666;2023-04-08T04:01:04;102444.03;;;17.45;49.58
38616;BME280;24370;51.986;4.666;2023-04-08T04:03:30;102445.00;;;17.38;50.50
38616;BME280;24370;51.986;4.666;2023-04-08T04:05:55;102442.84;;;17.68;49.90
38616;BME280;24370;51.986;4.666;2023-04-08T04:08:21;102449.00;;;18.28;48.11
38616;BME280;24370;51.986;4.666;2023-04-08T04:10:46;102457.16;;;16.74;51.01
38616;BME280;24370;51.986;4.666;2023-04-08T04:13:12;102457.66;;;17.15;50.60
38616;BME280;24370;51.986;4.666;2023-04-08T04:15:38;102445.75;;;16.70;51.67
38616;BME280;24370;51.986;4.666;2023-04-08T04:18:05;102460.22;;;16.26;53.91
38616;BME280;24370;51.986;4.666;2023-04-08T04:20:30;102459.94;;;16.60;52.22
38616;BME280;24370;51.986;4.666;2023-04-08T04:22:55;102457.41;;;17.33;51.00
38616;BME280;24370;51.986;4.666;2023-04-08T04:25:21;102469.53;;;16.67;51.36
38616;BME280;24370;51.986;4.666;2023-04-08T04:27:47;102471.44;;;16.53;52.52
38616;BME280;24370;51.986;4.666;2023-04-08T04:30:12;102468.97;;;16.31;52.31
38616;BME280;24370;51.986;4.666;2023-04-08T04:32:40;102471.78;;;17.07;50.54
38616;BME280;24370;51.986;4.666;2023-04-08T04:35:08;102459.75;;;16.78;51.17
38616;BME280;24370;51.986;4.666;2023-04-08T04:37:33;102468.47;;;16.87;50.70
38616;BME280;24370;51.986;4.666;2023-04-08T04:39:59;102467.13;;;17.29;49.83
38616;BME280;24370;51.986;4.666;2023-04-08T04:42:24;102470.84;;;16.17;51.94
38616;BME280;24370;51.986;4.666;2023-04-08T04:44:50;102473.34;;;16.37;52.52
38616;BME280;24370;51.986;4.666;2023-04-08T04:47:15;102473.22;;;16.49;51.88
38616;BME280;24370;51.986;4.666;2023-04-08T04:49:41;102490.28;;;16.00;52.80
38616;BME280;24370;51.986;4.666;2023-04-08T04:52:06;102481.16;;;16.48;51.91
38616;BME280;24370;51.986;4.666;2023-04-08T04:54:31;102488.19;;;16.49;51.87
38616;BME280;24370;51.986;4.666;2023-04-08T04:56:57;102487.28;;;16.50;52.12
38616;BME280;24370;51.986;4.666;2023-04-08T04:59:22;102489.47;;;15.95;52.87
38616;BME280;24370;51.986;4.666;2023-04-08T05:01:48;102497.03;;;16.44;51.81
38616;BME280;24370;51.986;4.666;2023-04-08T05:04:13;102492.56;;;16.51;51.82
38616;BME280;24370;51.986;4.666;2023-04-08T05:06:38;102507.25;;;16.80;50.56
38616;BME280;24370;51.986;4.666;2023-04-08T05:09:04;102493.78;;;17.11;50.31
38616;BME280;24370;51.986;4.666;2023-04-08T05:11:29;102496.81;;;16.69;50.40
38616;BME280;24370;51.986;4.666;2023-04-08T05:13:54;102504.56;;;15.62;53.64
38616;BME280;24370;51.986;4.666;2023-04-08T05:16:20;102501.84;;;15.73;53.37
38616;BME280;24370;51.986;4.666;2023-04-08T05:18:45;102500.38;;;16.65;51.40
38616;BME280;24370;51.986;4.666;2023-04-08T05:21:11;102504.22;;;16.24;51.96
38616;BME280;24370;51.986;4.666;2023-04-08T05:23:36;102503.59;;;15.75;53.85
38616;BME280;24370;51.986;4.666;2023-04-08T05:26:02;102506.41;;;15.41;54.92
38616;BME280;24370;51.986;4.666;2023-04-08T05:28:27;102511.50;;;15.78;53.39
38616;BME280;24370;51.986;4.666;2023-04-08T05:30:52;102504.16;;;16.30;52.08
38616;BME280;24370;51.986;4.666;2023-04-08T05:33:19;102510.22;;;16.44;51.78
38616;BME280;24370;51.986;4.666;2023-04-08T05:35:44;102509.19;;;16.64;51.02
38616;BME280;24370;51.986;4.666;2023-04-08T05:38:10;102510.66;;;15.67;53.84
38616;BME280;24370;51.986;4.666;2023-04-08T05:40:36;102524.72;;;15.69;53.39
38616;BME280;24370;51.986;4.666;2023-04-08T05:43:01;102522.19;;;15.38;56.32
38616;BME280;24370;51.986;4.666;2023-04-08T05:45:27;102527.25;;;15.94;53.60
38616;BME280;24370;51.986;4.666;2023-04-08T05:47:53;102527.31;;;15.85;53.72
38616;BME280;24370;51.986;4.666;2023-04-08T05:50:18;102523.47;;;16.35;52.82
38616;BME280;24370;51.986;4.666;2023-04-08T05:52:44;102532.66;;;17.00;49.87
38616;BME280;24370;51.986;4.666;2023-04-08T05:55:10;102537.75;;;16.00;52.28
38616;BME280;24370;51.986;4.666;2023-04-08T05:57:35;102537.81;;;15.94;53.43
38616;BME280;24370;51.986;4.666;2023-04-08T06:00:02;102536.91;;;15.93;54.27
38616;BME280;24370;51.986;4.666;2023-04-08T06:02:27;102551.28;;;14.93;57.11
38616;BME280;24370;51.986;4.666;2023-04-08T06:04:53;102545.78;;;15.71;55.14
38616;BME280;24370;51.986;4.666;2023-04-08T06:07:18;102559.16;;;14.98;55.80
38616;BME280;24370;51.986;4.666;2023-04-08T06:09:43;102556.47;;;14.30;59.36
38616;BME280;24370;51.986;4.666;2023-04-08T06:12:09;102545.88;;;15.54;56.64
38616;BME280;24370;51.986;4.666;2023-04-08T06:14:35;102551.19;;;15.26;56.82
38616;BME280;24370;51.986;4.666;2023-04-08T06:17:00;102553.66;;;15.88;55.40
38616;BME280;24370;51.986;4.666;2023-04-08T06:19:25;102553.63;;;15.94;54.30
38616;BME280;24370;51.986;4.666;2023-04-08T06:21:51;102563.47;;;15.38;56.61
38616;BME280;24370;51.986;4.666;2023-04-08T06:24:16;102556.97;;;16.21;54.82
38616;BME280;24370;51.986;4.666;2023-04-08T06:26:42;102558.59;;;16.47;53.72
38616;BME280;24370;51.986;4.666;2023-04-08T06:29:07;102564.31;;;15.48;55.28
38616;BME280;24370;51.986;4.666;2023-04-08T06:31:32;102580.22;;;14.98;60.02
38616;BME280;24370;51.986;4.666;2023-04-08T06:33:58;102574.84;;;15.57;56.96
38616;BME280;24370;51.986;4.666;2023-04-08T06:36:23;102576.66;;;15.39;57.91
38616;BME280;24370;51.986;4.666;2023-04-08T06:38:49;102591.63;;;14.94;58.35
38616;BME280;24370;51.986;4.666;2023-04-08T06:41:14;102587.19;;;15.36;56.85
38616;BME280;24370;51.986;4.666;2023-04-08T06:43:40;102584.19;;;16.31;54.43
38616;BME280;24370;51.986;4.666;2023-04-08T06:46:05;102597.75;;;15.33;58.54
38616;BME280;24370;51.986;4.666;2023-04-08T06:48:31;102593.28;;;15.57;56.93
38616;BME280;24370;51.986;4.666;2023-04-08T06:50:57;102597.63;;;15.86;55.86
38616;BME280;24370;51.986;4.666;2023-04-08T06:53:23;102587.50;;;16.62;53.49
38616;BME280;24370;51.986;4.666;2023-04-08T06:55:49;102590.78;;;16.95;52.67
38616;BME280;24370;51.986;4.666;2023-04-08T06:58:14;102593.34;;;17.04;51.86
38616;BME280;24370;51.986;4.666;2023-04-08T07:00:40;102597.38;;;16.29;52.99
38616;BME280;24370;51.986;4.666;2023-04-08T07:03:06;102600.75;;;16.56;53.58
38616;BME280;24370;51.986;4.666;2023-04-08T07:05:31;102606.38;;;17.21;52.12
38616;BME280;24370;51.986;4.666;2023-04-08T07:07:59;102613.06;;;16.54;53.84
38616;BME280;24370;51.986;4.666;2023-04-08T07:10:25;102609.00;;;15.97;55.72
38616;BME280;24370;51.986;4.666;2023-04-08T07:12:50;102609.72;;;16.30;56.09
38616;BME280;24370;51.986;4.666;2023-04-08T07:15:16;102608.94;;;17.32;52.48
38616;BME280;24370;51.986;4.666;2023-04-08T07:17:42;102611.94;;;17.77;51.49
38616;BME280;24370;51.986;4.666;2023-04-08T07:20:07;102616.28;;;17.83;51.20
38616;BME280;24370;51.986;4.666;2023-04-08T07:22:33;102606.22;;;18.18;50.24
38616;BME280;24370;51.986;4.666;2023-04-08T07:24:58;102617.22;;;18.47;48.92
38616;BME280;24370;51.986;4.666;2023-04-08T07:27:23;102623.06;;;17.28;51.98
38616;BME280;24370;51.986;4.666;2023-04-08T07:29:52;102613.91;;;17.63;51.85
38616;BME280;24370;51.986;4.666;2023-04-08T07:32:19;102627.53;;;17.24;53.19
38616;BME280;24370;51.986;4.666;2023-04-08T07:34:44;102633.00;;;17.87;50.52
38616;BME280;24370;51.986;4.666;2023-04-08T07:37:10;102624.75;;;18.14;50.14
38616;BME280;24370;51.986;4.666;2023-04-08T07:39:35;102625.53;;;16.30;55.10
38616;BME280;24370;51.986;4.666;2023-04-08T07:42:01;102631.56;;;16.51;54.89
38616;BME280;24370;51.986;4.666;2023-04-08T07:44:26;102628.22;;;17.40;52.60
38616;BME280;24370;51.986;4.666;2023-04-08T07:46:52;102639.38;;;16.71;53.04
38616;BME280;24370;51.986;4.666;2023-04-08T07:49:17;102632.31;;;16.71;53.19
38616;BME280;24370;51.986;4.666;2023-04-08T07:51:42;102636.81;;;16.60;54.73
38616;BME280;24370;51.986;4.666;2023-04-08T07:54:08;102642.13;;;16.51;55.89
38616;BME280;24370;51.986;4.666;2023-04-08T07:56:36;102643.66;;;16.86;54.11
38616;BME280;24370;51.986;4.666;2023-04-08T07:59:05;102647.81;;;17.21;52.96
38616;BME280;24370;51.986;4.666;2023-04-08T08:01:30;102643.81;;;17.68;52.79
38616;BME280;24370;51.986;4.666;2023-04-08T08:03:59;102648.22;;;17.66;51.14
38616;BME280;24370;51.986;4.666;2023-04-08T08:06:24;102639.53;;;18.31;49.49
38616;BME280;24370;51.986;4.666;2023-04-08T08:08:51;102658.31;;;17.25;52.01
38616;BME280;24370;51.986;4.666;2023-04-08T08:11:17;102652.47;;;17.83;50.68
38616;BME280;24370;51.986;4.666;2023-04-08T08:13:42;102657.28;;;18.23;49.68
38616;BME280;24370;51.986;4.666;2023-04-08T08:16:07;102667.81;;;17.48;51.03
38616;BME280;24370;51.986;4.666;2023-04-08T08:18:35;102664.91;;;16.66;52.06
38616;BME280;24370;51.986;4.666;2023-04-08T08:21:01;102667.25;;;17.13;49.84
38616;BME280;24370;51.986;4.666;2023-04-08T08:23:27;102664.38;;;18.21;49.69
38616;BME280;24370;51.986;4.666;2023-04-08T08:26:07;102668.28;;;18.59;47.33
38616;BME280;24370;51.986;4.666;2023-04-08T08:28:37;102658.75;;;18.45;48.29
38616;BME280;24370;51.986;4.666;2023-04-08T08:31:02;102662.72;;;18.76;48.82
38616;BME280;24370;51.986;4.666;2023-04-08T08:33:30;102666.28;;;18.09;49.51
38616;BME280;24370;51.986;4.666;2023-04-08T08:35:55;102663.50;;;18.19;48.52
38616;BME280;24370;51.986;4.666;2023-04-08T08:38:22;102673.84;;;17.64;50.03
38616;BME280;24370;51.986;4.666;2023-04-08T08:40:53;102674.19;;;17.24;50.03
38616;BME280;24370;51.986;4.666;2023-04-08T08:43:19;102679.78;;;16.81;50.37
38616;BME280;24370;51.986;4.666;2023-04-08T08:45:44;102694.31;;;14.97;55.44
38616;BME280;24370;51.986;4.666;2023-04-08T08:48:09;102681.97;;;15.89;52.33
38616;BME280;24370;51.986;4.666;2023-04-08T08:50:35;102688.75;;;16.55;51.96
38616;BME280;24370;51.986;4.666;2023-04-08T08:53:01;102683.22;;;17.90;48.82
38616;BME280;24370;51.986;4.666;2023-04-08T08:55:29;102683.28;;;16.86;51.51
38616;BME280;24370;51.986;4.666;2023-04-08T08:57:56;102688.47;;;17.01;51.50
38616;BME280;24370;51.986;4.666;2023-04-08T09:00:35;102683.94;;;17.17;50.97
38616;BME280;24370;51.986;4.666;2023-04-08T09:03:30;102683.13;;;17.07;51.69
38616;BME280;24370;51.986;4.666;2023-04-08T09:06:00;102682.38;;;16.87;51.45
38616;BME280;24370;51.986;4.666;2023-04-08T09:08:34;102686.47;;;17.31;51.56
38616;BME280;24370;51.986;4.666;2023-04-08T09:11:16;102693.44;;;15.57;53.39
38616;BME280;24370;51.986;4.666;2023-04-08T09:13:43;102690.53;;;16.48;51.80
38616;BME280;24370;51.986;4.666;2023-04-08T09:16:14;102691.66;;;17.40;49.21
38616;BME280;24370;51.986;4.666;2023-04-08T09:18:42;102688.41;;;17.07;49.58
38616;BME280;24370;51.986;4.666;2023-04-08T09:21:09;102689.56;;;19.10;45.98
38616;BME280;24370;51.986;4.666;2023-04-08T09:23:45;102680.78;;;20.87;42.56
38616;BME280;24370;51.986;4.666;2023-04-08T09:26:22;102690.50;;;20.88;40.13
38616;BME280;24370;51.986;4.666;2023-04-08T09:29:02;102682.81;;;20.75;39.65
38616;BME280;24370;51.986;4.666;2023-04-08T09:31:29;102691.28;;;20.93;39.64
38616;BME280;24370;51.986;4.666;2023-04-08T09:34:12;102688.69;;;21.60;37.85
38616;BME280;24370;51.986;4.666;2023-04-08T09:36:39;102703.44;;;19.76;40.95
38616;BME280;24370;51.986;4.666;2023-04-08T09:39:05;102684.50;;;20.79;39.39
38616;BME280;24370;51.986;4.666;2023-04-08T09:41:33;102687.00;;;22.50;37.22
38616;BME280;24370;51.986;4.666;2023-04-08T09:44:03;102676.28;;;24.08;33.72
38616;BME280;24370;51.986;4.666;2023-04-08T09:49:13;102678.22;;;24.95;33.12
38616;BME280;24370;51.986;4.666;2023-04-08T09:51:52;102684.69;;;25.11;31.69
38616;BME280;24370;51.986;4.666;2023-04-08T09:54:23;102691.16;;;23.66;32.67
38616;BME280;24370;51.986;4.666;2023-04-08T09:57:00;102699.34;;;23.62;33.67
38616;BME280;24370;51.986;4.666;2023-04-08T09:59:29;102688.84;;;24.30;33.05
38616;BME280;24370;51.986;4.666;2023-04-08T10:02:00;102688.59;;;23.11;33.15
38616;BME280;24370;51.986;4.666;2023-04-08T10:04:27;102694.53;;;23.46;33.07
38616;BME280;24370;51.986;4.666;2023-04-08T10:06:56;102690.50;;;23.60;33.22
38616;BME280;24370;51.986;4.666;2023-04-08T10:09:26;102677.63;;;24.66;32.09
38616;BME280;24370;51.986;4.666;2023-04-08T10:11:52;102678.75;;;24.82;32.00
38616;BME280;24370;51.986;4.666;2023-04-08T10:14:17;102688.97;;;25.15;31.55
38616;BME280;24370;51.986;4.666;2023-04-08T10:16:43;102686.09;;;25.82;31.64
38616;BME280;24370;51.986;4.666;2023-04-08T10:19:37;102687.19;;;25.16;31.81
38616;BME280;24370;51.986;4.666;2023-04-08T10:27:41;102673.97;;;26.32;29.91
38616;BME280;24370;51.986;4.666;2023-04-08T10:32:54;102676.00;;;24.62;30.87
38616;BME280;24370;51.986;4.666;2023-04-08T10:35:29;102671.38;;;26.11;28.72
38616;BME280;24370;51.986;4.666;2023-04-08T10:37:56;102681.84;;;25.97;27.34
38616;BME280;24370;51.986;4.666;2023-04-08T10:40:22;102678.84;;;24.35;28.78
38616;BME280;24370;51.986;4.666;2023-04-08T10:45:20;102677.34;;;24.28;27.91
38616;BME280;24370;51.986;4.666;2023-04-08T10:47:46;102680.72;;;24.99;28.16
38616;BME280;24370;51.986;4.666;2023-04-08T10:50:13;102674.41;;;25.64;25.88
38616;BME280;24370;51.986;4.666;2023-04-08T10:52:52;102674.44;;;25.43;26.29
38616;BME280;24370;51.986;4.666;2023-04-08T10:55:22;102668.78;;;26.29;25.99
38616;BME280;24370;51.986;4.666;2023-04-08T10:57:49;102666.56;;;25.99;25.76
38616;BME280;24370;51.986;4.666;2023-04-08T11:03:16;102669.81;;;25.47;25.50
38616;BME280;24370;51.986;4.666;2023-04-08T11:05:43;102672.50;;;27.17;23.54
38616;BME280;24370;51.986;4.666;2023-04-08T11:08:08;102676.84;;;25.89;24.93
38616;BME280;24370;51.986;4.666;2023-04-08T11:10:37;102670.81;;;25.44;26.00
38616;BME280;24370;51.986;4.666;2023-04-08T11:13:05;102675.06;;;25.69;26.97
38616;BME280;24370;51.986;4.666;2023-04-08T11:15:32;102672.94;;;25.36;26.06
38616;BME280;24370;51.986;4.666;2023-04-08T11:17:58;102670.91;;;25.82;25.98
38616;BME280;24370;51.986;4.666;2023-04-08T11:20:24;102672.25;;;25.10;27.26
38616;BME280;24370;51.986;4.666;2023-04-08T11:22:50;102666.78;;;25.54;25.61
38616;BME280;24370;51.986;4.666;2023-04-08T11:25:16;102676.53;;;25.76;25.35
38616;BME280;24370;51.986;4.666;2023-04-08T11:27:42;102667.69;;;25.74;26.21
38616;BME280;24370;51.986;4.666;2023-04-08T11:30:09;102663.69;;;26.22;25.48
38616;BME280;24370;51.986;4.666;2023-04-08T11:32:36;102670.78;;;25.23;26.24
38616;BME280;24370;51.986;4.666;2023-04-08T11:35:05;102674.69;;;25.97;26.31
38616;BME280;24370;51.986;4.666;2023-04-08T11:37:40;102665.41;;;25.03;26.10
38616;BME280;24370;51.986;4.666;2023-04-08T11:40:10;102663.84;;;26.19;25.03
38616;BME280;24370;51.986;4.666;2023-04-08T11:42:36;102666.72;;;25.96;25.94
38616;BME280;24370;51.986;4.666;2023-04-08T11:45:09;102660.47;;;25.95;25.02
38616;BME280;24370;51.986;4.666;2023-04-08T11:47:35;102655.19;;;27.05;24.69
38616;BME280;24370;51.986;4.666;2023-04-08T11:50:01;102656.91;;;26.15;23.55
38616;BME280;24370;51.986;4.666;2023-04-08T11:52:44;102658.59;;;24.96;26.14
38616;BME280;24370;51.986;4.666;2023-04-08T11:55:11;102661.97;;;25.63;24.59
38616;BME280;24370;51.986;4.666;2023-04-08T11:57:37;102655.66;;;26.22;23.98
38616;BME280;24370;51.986;4.666;2023-04-08T12:00:06;102658.13;;;24.64;25.62
38616;BME280;24370;51.986;4.666;2023-04-08T12:02:32;102663.03;;;25.17;24.87
38616;BME280;24370;51.986;4.666;2023-04-08T12:04:57;102652.50;;;26.70;23.62
38616;BME280;24370;51.986;4.666;2023-04-08T12:07:23;102660.47;;;24.94;23.52
38616;BME280;24370;51.986;4.666;2023-04-08T12:09:48;102663.84;;;25.40;24.26
38616;BME280;24370;51.986;4.666;2023-04-08T12:12:13;102655.88;;;24.75;23.07
38616;BME280;24370;51.986;4.666;2023-04-08T12:14:39;102662.34;;;25.12;23.73
38616;BME280;24370;51.986;4.666;2023-04-08T12:17:05;102657.50;;;26.58;23.30
38616;BME280;24370;51.986;4.666;2023-04-08T12:19:30;102649.50;;;26.20;21.78
38616;BME280;24370;51.986;4.666;2023-04-08T12:21:56;102651.69;;;26.12;20.71
38616;BME280;24370;51.986;4.666;2023-04-08T12:24:21;102654.63;;;25.47;22.90
38616;BME280;24370;51.986;4.666;2023-04-08T12:26:46;102655.56;;;26.43;21.38
38616;BME280;24370;51.986;4.666;2023-04-08T12:29:12;102657.41;;;25.23;21.87
38616;BME280;24370;51.986;4.666;2023-04-08T12:31:37;102657.34;;;25.85;20.60
38616;BME280;24370;51.986;4.666;2023-04-08T12:34:03;102660.09;;;25.44;20.09
38616;BME280;24370;51.986;4.666;2023-04-08T12:36:31;102660.09;;;25.44;21.62
38616;BME280;24370;51.986;4.666;2023-04-08T12:38:57;102658.00;;;25.71;19.68
38616;BME280;24370;51.986;4.666;2023-04-08T12:41:22;102652.03;;;25.65;20.44
38616;BME280;24370;51.986;4.666;2023-04-08T12:43:48;102653.56;;;25.51;20.11
38616;BME280;24370;51.986;4.666;2023-04-08T12:46:13;102652.75;;;25.49;22.34
38616;BME280;24370;51.986;4.666;2023-04-08T12:48:38;102654.41;;;25.31;21.93
38616;BME280;24370;51.986;4.666;2023-04-08T12:51:04;102651.69;;;26.12;20.68
38616;BME280;24370;51.986;4.666;2023-04-08T12:53:29;102658.91;;;25.09;21.93
38616;BME280;24370;51.986;4.666;2023-04-08T12:55:55;102656.81;;;24.74;22.39
38616;BME280;24370;51.986;4.666;2023-04-08T12:58:21;102651.28;;;24.33;21.83
38616;BME280;24370;51.986;4.666;2023-04-08T13:00:47;102649.28;;;25.47;23.27
38616;BME280;24370;51.986;4.666;2023-04-08T13:03:13;102651.56;;;25.95;22.89
38616;BME280;24370;51.986;4.666;2023-04-08T13:05:41;102652.38;;;26.90;21.94
38616;BME280;24370;51.986;4.666;2023-04-08T13:08:06;102651.78;;;25.30;22.72